Time;durP1;ratioP1;P1;durP2;ratioP2;P2;SDS_P1;SDS_P2;PMS_P1;PMS_P2;Temp;Humidity;BMP_temperature;BMP_pressure;BME280_temperature;BME280_humidity;BME280_pressure;Samples;Min_cycle;Max_cycle;Signal;HPM_P1;HPM_P2
2022/06/07 00:03:34;;;;;;;9.00;8.25;;;;;;;18.63;63.30;100361.69;3631214;75;21009;-85
2022/06/07 00:08:26;;;;;;;8.80;8.10;;;;;;;18.58;63.51;100371.48;3568037;75;21453;-85
2022/06/07 00:13:19;;;;;;;9.05;8.25;;;;;;;18.56;63.73;100367.99;3611266;76;20959;-85
2022/06/07 00:18:11;;;;;;;9.00;8.30;;;;;;;18.53;63.48;100360.18;3654555;75;22387;-85
2022/06/07 00:23:07;;;;;;;9.65;8.85;;;;;;;18.50;63.78;100365.50;3607894;75;20968;-85
2022/06/07 00:27:59;;;;;;;8.90;8.25;;;;;;;18.50;64.07;100360.70;3649543;76;21505;-85
2022/06/07 00:32:51;;;;;;;9.03;8.30;;;;;;;18.42;63.96;100367.42;3663273;76;20959;-85
2022/06/07 00:37:42;;;;;;;9.60;8.80;;;;;;;18.41;64.27;100363.07;3603088;76;20872;-85
2022/06/07 00:42:34;;;;;;;9.78;8.93;;;;;;;18.41;64.49;100355.17;3626509;76;21157;-85
2022/06/07 00:47:28;;;;;;;9.98;9.05;;;;;;;18.43;64.49;100358.64;3643774;76;20971;-85
2022/06/07 00:52:24;;;;;;;9.60;8.70;;;;;;;18.42;64.42;100355.58;3605033;75;21567;-86
2022/06/07 00:57:17;;;;;;;10.37;9.47;;;;;;;18.42;64.34;100357.78;3595044;77;21001;-85
2022/06/07 01:02:08;;;;;;;10.05;9.30;;;;;;;18.44;64.65;100343.27;3586099;78;21000;-85
2022/06/07 01:12:12;;;;;;;9.63;8.83;;;;;;;18.41;64.68;100347.28;3557983;77;20994;-85
2022/06/07 01:17:06;;;;;;;9.83;9.13;;;;;;;18.37;64.73;100342.95;3589646;77;21022;-85
2022/06/07 01:21:58;;;;;;;10.18;9.30;;;;;;;18.33;65.11;100347.42;3621451;75;20959;-85
2022/06/07 01:26:50;;;;;;;9.48;8.78;;;;;;;18.33;65.05;100348.73;3622239;75;21489;-85
2022/06/07 01:31:42;;;;;;;9.68;8.90;;;;;;;18.36;65.44;100354.40;3610411;75;21057;-86
2022/06/07 01:36:34;;;;;;;9.98;9.08;;;;;;;18.36;65.28;100342.10;3610551;76;21580;-86
2022/06/07 01:46:35;;;;;;;9.68;8.95;;;;;;;18.38;65.29;100330.23;3625670;75;20943;-85
2022/06/07 01:51:26;;;;;;;10.63;9.60;;;;;;;18.35;65.58;100328.97;3607907;76;21523;-85
2022/06/07 01:56:18;;;;;;;9.63;8.55;;;;;;;18.34;65.75;100324.63;3659161;76;21296;-86
2022/06/07 02:01:13;;;;;;;11.22;10.18;;;;;;;18.32;65.62;100329.91;3656075;75;21207;-86
2022/06/07 02:06:09;;;;;;;9.98;9.28;;;;;;;18.32;65.69;100323.33;3645361;75;21002;-85
2022/06/07 02:11:11;;;;;;;9.90;9.20;;;;;;;18.29;65.56;100325.56;3603990;75;21567;-85
2022/06/07 02:16:04;;;;;;;10.32;9.43;;;;;;;18.29;65.93;100330.83;3625551;76;21070;-85
2022/06/07 02:20:57;;;;;;;11.33;10.20;;;;;;;18.29;65.72;100316.81;3612276;75;22742;-86
2022/06/07 02:25:53;;;;;;;10.72;9.78;;;;;;;18.28;65.95;100329.11;3628215;76;20920;-85
2022/06/07 02:30:45;;;;;;;9.95;9.15;;;;;;;18.26;66.00;100320.39;3630429;75;21517;-85
2022/06/07 02:35:40;;;;;;;9.58;8.78;;;;;;;18.24;65.81;100327.45;3660119;75;20961;-85
2022/06/07 02:40:31;;;;;;;9.95;9.15;;;;;;;18.24;66.27;100320.88;3557936;75;21535;-85
2022/06/07 02:45:23;;;;;;;11.05;10.13;;;;;;;18.21;66.28;100313.50;3615088;76;22618;-85
2022/06/07 02:50:14;;;;;;;10.65;9.75;;;;;;;18.20;66.27;100309.97;3614964;75;20981;-85
2022/06/07 02:55:08;;;;;;;53.10;12.40;;;;;;;18.20;66.31;100300.77;3599193;75;21124;-86
2022/06/07 03:00:00;;;;;;;15.85;10.03;;;;;;;18.19;66.67;100295.53;3617522;75;20932;-85
2022/06/07 03:04:53;;;;;;;10.98;9.95;;;;;;;18.18;66.59;100310.92;3651663;75;20924;-86
2022/06/07 03:09:45;;;;;;;10.38;9.23;;;;;;;18.21;66.81;100306.45;3613623;76;21187;-85
2022/06/07 03:14:36;;;;;;;11.15;10.03;;;;;;;18.23;67.22;100305.97;3645864;75;20955;-86
2022/06/07 03:19:29;;;;;;;12.65;11.68;;;;;;;18.23;67.62;100307.29;3616033;75;20932;-86
2022/06/07 03:24:21;;;;;;;11.28;10.35;;;;;;;18.18;68.21;100303.88;3547268;77;21696;-86
2022/06/07 03:29:14;;;;;;;11.73;10.60;;;;;;;18.14;68.41;100307.95;3642113;76;21447;-86
2022/06/07 03:34:07;;;;;;;11.73;10.82;;;;;;;18.06;68.52;100307.66;3591048;76;22159;-87
2022/06/07 03:39:04;;;;;;;12.85;11.68;;;;;;;18.06;69.15;100301.50;3616428;76;20944;-87
2022/06/07 03:43:57;;;;;;;13.45;12.25;;;;;;;18.05;69.41;100303.28;3638505;75;20893;-86
2022/06/07 03:48:50;;;;;;;13.10;11.80;;;;;;;18.09;69.70;100305.39;3612090;75;20945;-86
2022/06/07 03:53:43;;;;;;;11.93;10.93;;;;;;;18.13;69.67;100315.41;3568904;75;21413;-87
2022/06/07 03:58:38;;;;;;;13.10;12.15;;;;;;;18.13;69.81;100314.95;3628959;75;22014;-87
2022/06/07 04:03:29;;;;;;;13.22;12.23;;;;;;;18.12;69.74;100311.91;3622780;75;20998;-86
2022/06/07 04:08:22;;;;;;;13.35;12.05;;;;;;;18.15;70.26;100313.14;3602674;76;20983;-86
2022/06/07 04:13:16;;;;;;;13.00;11.90;;;;;;;18.16;70.25;100307.00;3630481;75;20975;-86
2022/06/07 04:18:08;;;;;;;13.88;12.68;;;;;;;18.19;70.53;100299.48;3644328;75;20892;-86
2022/06/07 04:23:01;;;;;;;13.28;12.20;;;;;;;18.19;70.60;100287.64;3655525;75;21040;-85
2022/06/07 04:27:54;;;;;;;13.68;12.53;;;;;;;18.25;70.79;100284.44;3600264;75;20981;-86
2022/06/07 04:32:47;;;;;;;15.30;14.10;;;;;;;18.38;70.90;100281.54;3597687;75;20931;-86
2022/06/07 04:37:41;;;;;;;14.93;13.70;;;;;;;18.54;70.62;100293.45;3640434;76;20998;-86
2022/06/07 04:42:32;;;;;;;15.65;14.40;;;;;;;18.68;70.48;100295.77;3665127;75;20955;-86
2022/06/07 04:47:25;;;;;;;15.08;13.78;;;;;;;18.79;70.50;100295.52;3645272;75;20953;-83
2022/06/07 04:52:18;;;;;;;14.60;13.40;;;;;;;18.82;69.89;100299.44;3597233;75;20976;-83
2022/06/07 04:57:09;;;;;;;13.78;12.78;;;;;;;18.84;69.63;100298.95;3639014;75;20974;-83
2022/06/07 05:02:03;;;;;;;14.00;12.63;;;;;;;18.96;69.74;100303.07;3674194;76;20994;-86
2022/06/07 05:06:55;;;;;;;13.83;12.73;;;;;;;19.23;69.21;100310.73;3592409;75;21029;-84
2022/06/07 05:11:55;;;;;;;14.15;12.95;;;;;;;19.45;68.76;100316.77;3658613;75;20924;-84
2022/06/07 05:16:50;;;;;;;14.15;12.85;;;;;;;19.56;68.21;100314.71;3605736;75;20957;-84
2022/06/07 05:21:45;;;;;;;12.93;11.93;;;;;;;19.65;67.81;100311.83;3662344;76;20879;-84
2022/06/07 05:26:48;;;;;;;13.55;12.35;;;;;;;19.66;67.40;100318.84;3614480;76;20935;-83
2022/06/07 05:31:40;;;;;;;13.10;11.93;;;;;;;19.72;67.29;100320.44;3663472;75;20945;-83
2022/06/07 05:36:31;;;;;;;14.68;13.38;;;;;;;19.90;67.55;100317.78;3625657;75;22179;-83
2022/06/07 05:41:32;;;;;;;13.83;12.82;;;;;;;20.15;66.87;100318.80;3589740;75;20931;-83
2022/06/07 05:46:25;;;;;;;14.50;13.20;;;;;;;20.40;67.02;100328.66;3646653;76;21019;-83
2022/06/07 05:51:19;;;;;;;14.55;13.53;;;;;;;20.56;66.84;100328.59;3625024;75;20956;-84
2022/06/07 05:56:14;;;;;;;15.28;13.98;;;;;;;20.76;65.88;100329.78;3629911;75;21512;-83
2022/06/07 06:01:07;;;;;;;15.65;14.05;;;;;;;20.98;65.69;100327.78;3614556;76;21244;-84
2022/06/07 06:05:59;;;;;;;14.45;13.20;;;;;;;21.25;64.84;100322.06;3599577;75;20930;-84
2022/06/07 06:11:12;;;;;;;15.95;14.38;;;;;;;21.45;64.33;100322.70;3643575;75;20995;-84
2022/06/07 06:16:10;;;;;;;14.90;13.70;;;;;;;21.73;64.16;100323.08;3612064;76;21064;-84
2022/06/07 06:21:04;;;;;;;14.00;12.88;;;;;;;21.98;62.92;100323.95;3610163;76;20929;-83
2022/06/07 06:25:57;;;;;;;13.70;12.45;;;;;;;22.23;61.98;100313.31;3629957;75;21486;-84
2022/06/07 06:30:49;;;;;;;12.78;11.78;;;;;;;22.51;61.56;100314.06;3640323;76;20910;-84
2022/06/07 06:35:52;;;;;;;11.68;10.72;;;;;;;22.61;61.92;100312.78;3623082;76;21454;-85
2022/06/07 06:40:46;;;;;;;11.83;10.78;;;;;;;22.49;61.71;100307.49;3629680;76;20886;-87
2022/06/07 06:45:40;;;;;;;11.38;10.25;;;;;;;22.29;61.44;100289.73;3600060;76;22276;-85
2022/06/07 06:50:34;;;;;;;11.83;10.72;;;;;;;22.09;61.95;100292.64;3590674;75;21198;-82
2022/06/07 06:55:25;;;;;;;10.72;9.80;;;;;;;21.89;62.17;100289.85;3621176;76;20976;-85
2022/06/07 07:00:18;;;;;;;11.85;10.58;;;;;;;21.79;62.47;100291.13;3639701;75;20957;-83
2022/06/07 07:05:13;;;;;;;12.82;11.50;;;;;;;21.77;62.90;100295.63;3667533;75;21140;-90
2022/06/07 07:10:07;;;;;;;12.58;11.40;;;;;;;21.88;62.88;100293.44;3606028;76;21398;-89
2022/06/07 07:14:59;;;;;;;12.93;11.83;;;;;;;21.95;62.67;100293.61;3631437;75;21425;-89
2022/06/07 07:19:52;;;;;;;13.05;11.97;;;;;;;21.94;62.27;100290.55;3625226;77;20945;-88
2022/06/07 07:24:45;;;;;;;12.43;11.38;;;;;;;21.92;62.11;100285.78;3628117;75;20991;-87
2022/06/07 07:29:38;;;;;;;11.97;10.90;;;;;;;21.95;62.08;100285.67;3608852;76;20986;-90
2022/06/07 07:34:31;;;;;;;12.35;11.20;;;;;;;22.13;62.15;100280.62;3605520;76;21043;-89
2022/06/07 07:39:24;;;;;;;19.05;11.43;;;;;;;22.88;61.03;100275.50;3631689;75;21464;-89
2022/06/07 07:44:16;;;;;;;10.03;9.25;;;;;;;24.02;59.64;100285.20;3634037;75;20994;-93
2022/06/07 07:49:13;;;;;;;10.60;9.85;;;;;;;29.54;51.56;100269.36;3631042;75;20919;-90
2022/06/07 07:54:10;;;;;;;10.90;8.20;;;;;;;29.44;50.53;100272.67;3644405;75;21458;-91
2022/06/07 07:59:04;;;;;;;8.15;7.55;;;;;;;28.76;50.28;100273.69;3629501;75;20979;-89
2022/06/07 08:03:58;;;;;;;8.48;7.65;;;;;;;27.85;50.65;100270.53;3637894;75;21236;-90
2022/06/07 08:08:55;;;;;;;9.03;8.25;;;;;;;27.14;51.11;100267.65;3612485;75;21025;-88
2022/06/07 08:13:46;;;;;;;8.80;8.00;;;;;;;26.56;51.39;100262.55;3659163;75;21441;-90
2022/06/07 08:18:39;;;;;;;7.50;6.90;;;;;;;26.28;52.33;100266.38;3639764;76;20931;-87
2022/06/07 08:23:32;;;;;;;5.53;5.03;;;;;;;26.03;51.96;100269.06;3619844;76;22046;-88
2022/06/07 08:28:24;;;;;;;5.95;5.28;;;;;;;25.70;52.08;100273.88;3596213;77;21049;-85
2022/06/07 08:38:25;;;;;;;5.85;5.37;;;;;;;29.22;47.30;100273.27;3548280;77;21038;-87
2022/06/07 08:43:20;;;;;;;6.47;6.05;;;;;;;29.35;46.54;100267.08;3487471;79;21565;-87
2022/06/07 08:48:17;;;;;;;5.97;5.58;;;;;;;28.72;46.91;100262.79;3577173;78;21453;-89
2022/06/07 08:53:23;;;;;;;5.75;5.28;;;;;;;32.38;42.19;100240.89;3576989;76;22130;-87
2022/06/07 08:58:28;;;;;;;5.05;4.65;;;;;;;35.17;39.19;100251.06;3600978;78;20999;-88
2022/06/07 09:03:40;;;;;;;4.83;4.40;;;;;;;35.16;37.62;100245.29;3600889;77;20976;-89
2022/06/07 09:08:42;;;;;;;4.40;4.10;;;;;;;36.74;35.82;100242.64;3621105;78;20887;-86
2022/06/07 09:13:37;;;;;;;5.40;4.72;;;;;;;35.04;35.27;100243.74;3535244;78;20978;-87
2022/06/07 09:18:31;;;;;;;4.87;4.40;;;;;;;32.84;37.86;100239.78;3568748;77;20966;-87
2022/06/07 09:23:30;;;;;;;4.87;4.37;;;;;;;31.57;38.12;100235.68;3547039;77;21173;-87
2022/06/07 09:28:30;;;;;;;5.08;4.58;;;;;;;31.40;37.78;100242.33;3559289;77;21479;-86
2022/06/07 09:33:29;;;;;;;5.30;5.00;;;;;;;32.34;36.97;100237.59;3580645;77;21495;-87
2022/06/07 09:38:31;;;;;;;5.28;4.78;;;;;;;31.79;38.00;100240.20;3585035;77;20952;-84
2022/06/07 09:43:34;;;;;;;5.10;4.60;;;;;;;33.31;35.66;100222.76;3520237;77;41185;-85
2022/06/07 09:48:33;;;;;;;6.40;4.72;;;;;;;35.95;34.16;100230.59;3540036;77;22126;-85
2022/06/07 09:53:26;;;;;;;5.33;4.78;;;;;;;36.58;32.69;100220.80;3577751;78;20972;-86
2022/06/07 09:58:47;;;;;;;4.78;4.45;;;;;;;36.90;32.44;100209.91;3578124;77;21004;-87
2022/06/07 10:03:55;;;;;;;4.72;4.42;;;;;;;38.24;30.76;100211.70;3595599;77;20917;-86
2022/06/07 10:09:10;;;;;;;4.50;4.00;;;;;;;39.06;30.06;100203.64;3596898;77;21075;-86
2022/06/07 10:14:15;;;;;;;3.80;3.45;;;;;;;37.31;30.93;100207.52;3465610;78;20968;-86
2022/06/07 10:19:18;;;;;;;4.20;3.90;;;;;;;36.73;31.00;100194.89;3545787;77;20990;-86
2022/06/07 10:24:24;;;;;;;3.90;3.60;;;;;;;37.09;29.86;100186.69;3611791;77;20932;-87
2022/06/07 10:29:42;;;;;;;3.80;3.50;;;;;;;38.57;29.68;100188.69;3584152;77;20939;-87
2022/06/07 10:34:50;;;;;;;3.92;3.70;;;;;;;39.52;29.00;100196.75;3477802;80;21362;-86
2022/06/07 10:39:50;;;;;;;3.95;3.55;;;;;;;38.30;28.37;100186.59;3489128;80;20990;-86
2022/06/07 10:44:50;;;;;;;3.55;3.25;;;;;;;36.31;28.37;100187.39;3467335;80;21081;-84
2022/06/07 10:50:08;;;;;;;4.22;3.92;;;;;;;34.39;29.74;100195.70;3481544;80;21071;-83
2022/06/07 10:55:18;;;;;;;3.27;2.95;;;;;;;32.94;31.21;100186.84;3451493;80;21618;-85
2022/06/07 11:00:43;;;;;;;4.28;3.98;;;;;;;32.01;32.02;100190.08;3364651;83;23457;-83
2022/06/07 11:10:49;;;;;;;4.50;4.20;;;;;;;30.46;34.95;100178.81;3426453;80;20942;-82
2022/06/07 11:16:06;;;;;;;6.20;5.47;;;;;;;29.81;35.97;100178.16;3474251;80;21085;-85
2022/06/07 11:21:09;;;;;;;5.45;4.90;;;;;;;29.14;37.63;100176.57;3472644;79;21685;-81
2022/06/07 11:26:14;;;;;;;4.90;4.50;;;;;;;28.69;38.91;100170.25;3463637;79;20954;-80
2022/06/07 11:31:28;;;;;;;5.25;4.80;;;;;;;28.30;39.81;100167.91;3425676;80;21516;-85
2022/06/07 11:36:28;;;;;;;5.85;5.40;;;;;;;28.07;41.01;100161.39;3534935;75;20951;-83
2022/06/07 11:41:44;;;;;;;5.80;5.17;;;;;;;27.94;40.89;100173.84;3642912;75;20947;-82
2022/06/07 11:46:40;;;;;;;12.65;5.50;;;;;;;27.73;41.33;100171.53;3635211;75;21062;-84
2022/06/07 11:51:34;;;;;;;5.55;5.17;;;;;;;27.45;41.84;100178.23;3634960;75;20983;-83
2022/06/07 11:56:47;;;;;;;6.22;5.80;;;;;;;27.43;41.96;100168.12;3611071;75;20980;-82
2022/06/07 12:01:44;;;;;;;6.12;5.65;;;;;;;27.38;42.26;100167.94;3637923;75;20955;-82
2022/06/07 12:06:35;;;;;;;5.95;5.42;;;;;;;27.35;42.55;100162.78;3588809;75;20914;-84
2022/06/07 12:11:35;;;;;;;7.60;5.50;;;;;;;27.49;42.82;100147.25;3624550;75;20963;-86
2022/06/07 12:16:37;;;;;;;5.45;5.00;;;;;;;27.57;42.35;100142.27;3616422;76;21155;-83
2022/06/07 12:21:42;;;;;;;5.97;5.47;;;;;;;27.58;42.09;100144.48;3659277;76;21436;-89
2022/06/07 12:26:35;;;;;;;5.55;5.15;;;;;;;27.65;43.05;100141.80;3634190;75;21089;-85
2022/06/07 12:31:37;;;;;;;6.40;5.80;;;;;;;27.74;42.47;100131.87;3614131;75;20974;-86
2022/06/07 12:36:39;;;;;;;5.58;5.17;;;;;;;27.73;42.36;100128.80;3682794;75;20978;-89
2022/06/07 12:41:33;;;;;;;6.92;5.83;;;;;;;27.84;42.77;100129.94;3700968;75;21396;-89
2022/06/07 12:46:32;;;;;;;6.00;5.50;;;;;;;28.07;42.67;100123.98;3629899;75;20972;-87
2022/06/07 12:51:37;;;;;;;5.58;4.95;;;;;;;28.46;42.05;100123.62;3682303;75;20947;-89
2022/06/07 12:56:34;;;;;;;5.42;5.03;;;;;;;28.68;41.28;100120.87;3627587;75;21541;-87
2022/06/07 13:01:33;;;;;;;5.92;5.00;;;;;;;28.75;41.19;100112.80;3637845;75;20925;-86
2022/06/07 13:06:25;;;;;;;5.60;5.08;;;;;;;29.00;41.53;100104.42;3679298;75;21145;-87
2022/06/07 13:11:17;;;;;;;5.72;5.10;;;;;;;29.11;40.95;100107.19;3595776;75;20925;-86
2022/06/07 13:16:24;;;;;;;5.10;4.80;;;;;;;29.63;39.51;100098.62;3639526;77;21547;-87
2022/06/07 13:21:26;;;;;;;4.95;4.55;;;;;;;29.94;38.28;100096.39;3651345;76;21062;-87
2022/06/07 13:26:31;;;;;;;5.15;4.75;;;;;;;29.39;38.15;100082.52;3677766;75;20965;-85
2022/06/07 13:31:33;;;;;;;6.37;4.80;;;;;;;29.14;38.84;100085.57;3634265;76;21467;-87
2022/06/07 13:36:36;;;;;;;4.92;4.53;;;;;;;29.03;39.27;100072.95;3661906;75;20927;-88
2022/06/07 13:41:30;;;;;;;4.92;4.50;;;;;;;28.98;38.26;100071.56;3641476;75;21430;-84
2022/06/07 13:46:32;;;;;;;4.70;4.40;;;;;;;28.98;37.94;100068.89;3602482;75;20945;-85
2022/06/07 13:56:37;;;;;;;9.03;5.12;;;;;;;29.32;38.01;100067.86;3650399;75;21596;-84
2022/06/07 14:01:39;;;;;;;4.72;4.33;;;;;;;29.10;37.60;100068.03;3622724;76;20943;-82
2022/06/07 14:06:35;;;;;;;8.08;4.50;;;;;;;29.05;37.56;100071.51;3637270;76;20916;-85
2022/06/07 14:11:28;;;;;;;5.22;4.75;;;;;;;29.06;37.77;100074.54;3650814;75;20920;-83
2022/06/07 14:16:32;;;;;;;5.12;4.62;;;;;;;29.03;37.25;100077.45;3629410;77;20931;-86
2022/06/07 14:21:24;;;;;;;4.85;4.45;;;;;;;28.99;37.37;100075.94;3651123;77;21114;-85
2022/06/07 14:26:16;;;;;;;5.10;4.30;;;;;;;28.87;38.68;100075.84;3652023;75;21464;-85
2022/06/07 14:31:20;;;;;;;4.53;4.20;;;;;;;28.73;38.88;100063.91;3612083;75;20999;-87
2022/06/07 14:36:12;;;;;;;4.10;3.80;;;;;;;28.52;38.70;100063.04;3638154;75;21384;-86
2022/06/07 14:41:03;;;;;;;5.67;4.75;;;;;;;28.32;39.00;100055.54;3599688;75;20931;-81
2022/06/07 14:46:01;;;;;;;7.40;4.60;;;;;;;28.16;38.99;100044.17;3619642;75;21425;-86
2022/06/07 14:50:53;;;;;;;4.55;4.12;;;;;;;28.01;39.16;100046.03;3635102;75;20931;-85
2022/06/07 14:55:44;;;;;;;4.72;4.33;;;;;;;27.97;39.38;100043.20;3556004;76;20957;-85
2022/06/07 15:00:36;;;;;;;5.15;4.55;;;;;;;27.91;39.39;100033.78;3596084;75;20961;-85
2022/06/07 15:05:31;;;;;;;6.60;4.65;;;;;;;27.88;39.51;100031.27;3607117;75;21530;-85
2022/06/07 15:10:27;;;;;;;5.12;4.72;;;;;;;27.84;39.27;100024.43;3625495;77;22570;-82
2022/06/07 15:15:19;;;;;;;;;;;;;;;27.73;39.36;100029.98;3601085;77;20950;-84
2022/06/07 15:20:24;;;;;;;6.10;4.60;;;;;;;27.63;39.99;100028.88;3629136;75;20118;-85
2022/06/07 15:25:21;;;;;;;4.72;4.25;;;;;;;27.60;40.12;100015.75;3642207;77;20951;-84
2022/06/07 15:30:15;;;;;;;4.55;4.15;;;;;;;27.64;40.27;100013.24;3658124;75;20996;-85
2022/06/07 15:35:12;;;;;;;5.05;4.35;;;;;;;27.85;39.88;100006.97;3626656;75;21116;-85
2022/06/07 15:40:07;;;;;;;4.90;3.87;;;;;;;28.39;39.47;100007.87;3649532;77;21740;-84
2022/06/07 15:44:59;;;;;;;4.87;4.47;;;;;;;28.57;39.42;100008.45;3637290;75;20989;-85
2022/06/07 15:49:50;;;;;;;4.30;3.87;;;;;;;28.49;39.27;100008.92;3654655;75;20981;-82
2022/06/07 15:54:41;;;;;;;4.20;3.80;;;;;;;28.58;40.32;99992.30;3644912;76;20941;-81
2022/06/07 15:59:34;;;;;;;4.15;3.85;;;;;;;28.39;40.06;99998.02;3691435;75;20949;-83
2022/06/07 16:04:26;;;;;;;4.58;4.28;;;;;;;28.03;41.42;99996.90;3676447;76;21001;-83
2022/06/07 16:09:18;;;;;;;5.22;3.95;;;;;;;27.70;41.83;99994.63;3614160;76;21496;-86
2022/06/07 16:14:10;;;;;;;4.53;4.03;;;;;;;27.38;41.74;99997.12;3612867;77;21419;-83
2022/06/07 16:19:03;;;;;;;4.60;4.20;;;;;;;27.07;42.08;99987.50;3630635;76;20963;-83
2022/06/07 16:23:56;;;;;;;5.62;4.37;;;;;;;26.80;43.09;99986.10;3575780;76;21455;-83
2022/06/07 16:33:57;;;;;;;6.85;4.70;;;;;;;26.36;44.20;99989.64;3637569;75;20951;-83
2022/06/07 16:38:53;;;;;;;5.42;4.92;;;;;;;26.23;46.31;99995.71;3644886;75;20900;-83
2022/06/07 16:44:01;;;;;;;5.92;5.53;;;;;;;26.19;47.04;99996.85;3639517;75;20977;-83
2022/06/07 16:48:54;;;;;;;5.78;5.22;;;;;;;26.13;48.10;100002.55;3655117;75;20920;-83
2022/06/07 16:53:45;;;;;;;5.72;5.10;;;;;;;26.04;48.93;100008.41;3680657;75;20951;-83
2022/06/07 16:58:37;;;;;;;5.80;5.15;;;;;;;25.95;48.65;100008.94;3585593;75;21276;-83
2022/06/07 17:03:28;;;;;;;6.30;5.90;;;;;;;25.84;49.66;100005.09;3573851;76;20934;-83
2022/06/07 17:08:24;;;;;;;14.75;13.35;;;;;;;25.71;50.34;100010.72;3613722;76;20960;-83
2022/06/07 17:13:16;;;;;;;9.03;7.08;;;;;;;25.59;50.13;100010.94;3618707;75;21195;-83
2022/06/07 17:18:08;;;;;;;7.60;6.75;;;;;;;25.42;50.66;100005.73;3595476;75;21104;-83
2022/06/07 17:22:59;;;;;;;9.70;5.85;;;;;;;25.23;50.91;100004.52;3594243;76;21500;-83
2022/06/07 17:27:50;;;;;;;12.23;6.65;;;;;;;25.12;51.80;100011.77;3603874;75;21019;-83
2022/06/07 17:32:42;;;;;;;15.83;7.05;;;;;;;25.00;52.06;100001.31;3600543;75;20972;-83
2022/06/07 17:37:34;;;;;;;10.70;6.95;;;;;;;24.91;52.37;100000.04;3603712;76;21529;-83
2022/06/07 17:42:26;;;;;;;26.62;9.60;;;;;;;24.81;52.69;100000.14;3601788;75;21486;-83
2022/06/07 17:47:17;;;;;;;16.30;7.58;;;;;;;24.67;53.28;99995.55;3631244;75;20999;-83
2022/06/07 17:52:09;;;;;;;13.88;8.25;;;;;;;24.52;53.87;100001.62;3638575;75;20944;-83
2022/06/07 17:57:00;;;;;;;7.97;6.97;;;;;;;24.32;54.14;100002.22;3603053;75;20964;-82
2022/06/07 18:01:51;;;;;;;7.40;6.80;;;;;;;24.10;53.89;99993.63;3649688;75;21194;-83
2022/06/07 18:06:42;;;;;;;12.70;7.58;;;;;;;23.90;54.09;99991.98;3655589;75;20943;-83
2022/06/07 18:11:33;;;;;;;16.05;8.50;;;;;;;23.74;54.85;99995.83;3551750;77;21630;-83
2022/06/07 18:16:27;;;;;;;14.13;8.40;;;;;;;23.55;55.49;99994.52;3609452;76;20924;-83
2022/06/07 18:21:19;;;;;;;8.63;7.75;;;;;;;23.43;56.37;99999.97;3660937;75;20943;-83
2022/06/07 18:26:14;;;;;;;9.03;7.70;;;;;;;23.32;56.63;100003.13;3634284;75;20988;-83
2022/06/07 18:31:06;;;;;;;8.83;8.05;;;;;;;23.28;56.93;100009.97;3615964;76;21032;-83
2022/06/07 18:35:57;;;;;;;8.83;7.80;;;;;;;23.21;55.90;100008.94;3623426;76;20994;-83
2022/06/07 18:40:53;;;;;;;9.80;9.00;;;;;;;23.22;55.73;100016.42;3662873;76;21576;-83
2022/06/07 18:45:45;;;;;;;17.48;11.00;;;;;;;23.23;55.77;100016.80;3626633;76;20962;-83
2022/06/07 18:50:37;;;;;;;10.65;9.63;;;;;;;23.11;55.94;100007.64;3580762;76;21086;-83
2022/06/07 18:55:35;;;;;;;10.75;9.23;;;;;;;23.11;56.27;100027.53;3620972;76;21427;-83
2022/06/07 19:00:28;;;;;;;11.05;9.50;;;;;;;23.05;56.54;100033.56;3660657;75;21426;-83
2022/06/07 19:05:26;;;;;;;10.18;9.25;;;;;;;23.00;56.60;100037.27;3626806;76;21045;-83
2022/06/07 19:10:19;;;;;;;10.88;9.88;;;;;;;22.94;56.51;100039.33;3614882;75;20897;-83
2022/06/07 19:15:16;;;;;;;11.33;10.40;;;;;;;22.86;56.64;100029.08;3600602;75;21213;-83
2022/06/07 19:20:10;;;;;;;11.30;10.30;;;;;;;22.81;56.58;100030.59;3672471;75;21002;-83
2022/06/07 19:25:04;;;;;;;9.58;8.73;;;;;;;22.77;56.62;100032.99;3581978;76;21493;-83
2022/06/07 19:29:55;;;;;;;9.30;8.40;;;;;;;22.73;56.65;100036.72;3631447;76;20943;-83
2022/06/07 19:34:47;;;;;;;9.70;8.63;;;;;;;22.62;56.47;100038.95;3617283;75;21613;-83
2022/06/07 19:39:38;;;;;;;9.18;8.48;;;;;;;22.56;56.64;100047.19;3652456;76;21326;-83
2022/06/07 19:44:30;;;;;;;8.25;7.55;;;;;;;22.51;56.61;100054.47;3613483;75;21492;-82
2022/06/07 19:49:21;;;;;;;7.95;7.25;;;;;;;22.42;56.81;100045.98;3598717;76;21539;-81
2022/06/07 19:54:13;;;;;;;9.08;7.75;;;;;;;22.37;57.07;100045.30;3620548;76;20972;-82
2022/06/07 19:59:05;;;;;;;8.53;7.83;;;;;;;22.30;57.08;100046.49;3649657;76;21502;-82
2022/06/07 20:03:57;;;;;;;9.18;8.45;;;;;;;22.25;57.53;100047.14;3616760;75;21338;-82
2022/06/07 20:08:48;;;;;;;9.58;8.58;;;;;;;22.19;57.62;100057.97;3589474;75;20863;-82
2022/06/07 20:13:40;;;;;;;9.20;8.30;;;;;;;22.12;57.90;100047.24;3636442;75;21550;-83
2022/06/07 20:18:32;;;;;;;8.90;8.13;;;;;;;22.08;58.04;100052.66;3568619;77;20931;-83
2022/06/07 20:23:23;;;;;;;8.98;8.18;;;;;;;22.01;58.31;100055.16;3619185;75;21476;-83
2022/06/07 20:28:15;;;;;;;9.78;8.78;;;;;;;21.95;58.78;100062.03;3603600;75;22146;-83
2022/06/07 20:33:07;;;;;;;9.43;8.63;;;;;;;21.90;58.80;100066.17;3660531;75;20974;-84
2022/06/07 20:38:01;;;;;;;10.00;9.20;;;;;;;21.84;59.22;100066.91;3585662;75;21025;-83
2022/06/07 20:42:52;;;;;;;9.73;8.93;;;;;;;21.77;59.47;100074.69;3594214;75;20931;-84
2022/06/07 20:47:44;;;;;;;13.18;10.35;;;;;;;21.70;59.87;100072.74;3614506;75;20966;-84
2022/06/07 20:52:35;;;;;;;12.93;10.20;;;;;;;21.61;60.28;100077.92;3613973;76;20951;-84
2022/06/07 20:57:27;;;;;;;11.30;9.20;;;;;;;21.52;60.65;100069.03;3618490;75;21371;-85
2022/06/07 21:02:23;;;;;;;11.15;10.25;;;;;;;21.38;61.29;100067.34;3622333;75;21026;-87
2022/06/07 21:07:13;;;;;;;11.50;10.50;;;;;;;21.26;62.08;100069.52;3591236;76;20975;-87
2022/06/07 21:12:05;;;;;;;11.78;10.65;;;;;;;21.13;62.65;100064.30;3642872;75;21450;-87
2022/06/07 21:16:56;;;;;;;12.82;11.40;;;;;;;21.01;63.10;100060.78;3580075;75;21817;-87
2022/06/07 21:21:48;;;;;;;11.85;10.85;;;;;;;20.85;63.71;100053.86;3558420;75;20951;-86
2022/06/07 21:26:39;;;;;;;13.03;11.70;;;;;;;20.73;64.51;100052.08;3646624;76;20943;-86
2022/06/07 21:31:30;;;;;;;10.88;9.98;;;;;;;20.61;64.88;100059.55;3590024;75;21419;-85
2022/06/07 21:36:21;;;;;;;12.33;11.23;;;;;;;20.48;65.22;100057.76;3599183;76;21140;-85
2022/06/07 21:41:12;;;;;;;11.30;10.45;;;;;;;20.38;65.43;100063.36;3637714;76;22487;-86
2022/06/07 21:46:04;;;;;;;11.90;10.85;;;;;;;20.29;65.87;100068.10;3598557;75;21057;-86
2022/06/07 21:50:56;;;;;;;12.00;11.00;;;;;;;20.14;66.10;100072.97;3630959;75;20930;-86
2022/06/07 21:55:47;;;;;;;10.48;9.60;;;;;;;20.09;66.36;100069.62;3662752;75;21098;-85
2022/06/07 22:00:43;;;;;;;9.05;8.35;;;;;;;20.07;66.58;100068.81;3602750;75;20988;-85
2022/06/07 22:05:37;;;;;;;10.17;9.23;;;;;;;20.05;66.59;100064.48;3582676;75;21021;-85
2022/06/07 22:10:30;;;;;;;10.28;7.92;;;;;;;19.97;66.72;100067.37;3646296;75;20986;-85
2022/06/07 22:15:26;;;;;;;10.63;8.98;;;;;;;19.90;66.90;100061.89;3588053;76;20920;-85
2022/06/07 22:20:17;;;;;;;9.48;8.60;;;;;;;19.86;67.31;100058.95;3612593;76;20986;-84
2022/06/07 22:25:10;;;;;;;8.80;8.05;;;;;;;19.80;67.46;100055.59;3587757;75;20919;-84
2022/06/07 22:30:08;;;;;;;9.80;8.03;;;;;;;19.79;67.68;100047.72;3590699;76;20940;-84
2022/06/07 22:34:59;;;;;;;9.03;8.25;;;;;;;19.74;67.87;100040.41;3609988;75;20993;-85
2022/06/07 22:39:51;;;;;;;10.10;9.15;;;;;;;19.64;68.16;100033.22;3634493;76;20947;-84
2022/06/07 22:44:42;;;;;;;8.50;7.90;;;;;;;19.58;68.44;100021.10;3635020;76;20939;-84
2022/06/07 22:49:33;;;;;;;9.03;8.23;;;;;;;19.57;68.68;100010.13;3662188;75;21094;-84
2022/06/07 22:54:33;;;;;;;8.20;7.58;;;;;;;19.47;68.60;100006.52;3635547;75;21230;-84
2022/06/07 22:59:30;;;;;;;9.23;8.33;;;;;;;19.42;68.78;99994.34;3629768;75;21109;-84
2022/06/07 23:04:35;;;;;;;8.53;7.75;;;;;;;19.34;68.85;99995.49;3613969;76;21012;-84
2022/06/07 23:09:29;;;;;;;9.43;8.73;;;;;;;19.30;69.08;100002.63;3634660;75;21010;-83
2022/06/07 23:19:31;;;;;;;10.08;9.08;;;;;;;19.26;69.14;99997.02;3624793;75;21130;-84
2022/06/07 23:24:22;;;;;;;9.15;8.25;;;;;;;19.22;69.20;99999.35;3658708;75;22176;-84